Maersk Essen — V7UQ8 — position and weather

sailwx.info

Track history (hours):
 
Tides and Currents Weather Stations Pressure Air Temp Water Temp Dewpoint Dewpoint Depression Visibility Wind Speed Wind Dir Waves Ship Positions

Maersk Essen

Last reported at 2016-Nov-15 19:19 UTC. Time now 2016-Dec-02 22:17 UTC.
Position N 22°34' E 114°16'.
Warning: this ship's position is 17 days out of date.

Length 367 m; draft 13.2 m.

Type: Ship (hazmat cat A). MMSI: 538004007.

Date/timePositionNaut miles runAvg speedWind from/ knotsBaromVisibWave heightAir tempDewpointWater temp
2016-Nov-15 19:19N 22°34' E 114°16'23 1.9
2016-Nov-15 07:26N 22°28' E 113°53'0 0.0
2016-Nov-15 06:32N 22°28' E 113°53'0 0.0
2016-Nov-15 05:50N 22°28' E 113°53'0 0.0
2016-Nov-15 03:26N 22°28' E 113°53'0 0.0
2016-Nov-15 00:32N 22°28' E 113°53'0 0.1
2016-Nov-14 23:32N 22°28' E 113°53'0 0.0
2016-Nov-14 19:08N 22°28' E 113°53'0 0.0
2016-Nov-14 17:32N 22°28' E 113°53'0 0.0
2016-Nov-14 16:26N 22°28' E 113°53'0 0.0
2016-Nov-14 15:14N 22°28' E 113°53'19413.2
2016-Nov-14 00:31N 22°56' E 117°21'3516.7
2016-Nov-13 22:24N 23°19' E 117°50'6516.8
2016-Nov-13 18:31N 23°55' E 118°49'1516.0
2016-Nov-13 17:33N 24°05' E 119°03'3215.8
2016-Nov-13 15:33N 24°29' E 119°25'3015.1
2016-Nov-13 13:34N 24°49' E 119°50'37217.5
2016-Nov-12 16:20N 30°23' E 122°53'12 0.3
2016-Nov-10 22:31N 30°28' E 122°40'43 6.0
2016-Nov-10 15:25N 29°46' E 122°44'32 8.4
2016-Nov-10 11:33N 29°55' E 122°08'6 5.5
2016-Nov-10 10:33N 29°54' E 122°02'0 0.0
2016-Nov-10 09:33N 29°54' E 122°02'0 0.0
2016-Nov-10 08:31N 29°54' E 122°02'0 0.0
2016-Nov-10 07:31N 29°54' E 122°02'0 0.0
2016-Nov-10 06:31N 29°54' E 122°02'0 0.0
2016-Nov-10 05:31N 29°54' E 122°02'0 0.0
2016-Nov-10 04:31N 29°54' E 122°02'0 0.0
2016-Nov-10 00:31N 29°54' E 122°02'0 0.0
2016-Nov-09 22:31N 29°54' E 122°02'0 0.0
2016-Nov-09 20:31N 29°54' E 122°02'0 0.0
2016-Nov-09 19:49N 29°54' E 122°02'0 0.0
2016-Nov-09 19:01N 29°54' E 122°02'0 0.0
2016-Nov-09 18:31N 29°54' E 122°02'0 0.0
2016-Nov-09 17:25N 29°54' E 122°02'0 0.0
2016-Nov-09 15:31N 29°54' E 122°02'0 0.0
2016-Nov-09 13:31N 29°54' E 122°02'0 0.0
2016-Nov-09 08:32N 29°54' E 122°02'0 0.0
2016-Nov-09 07:32N 29°54' E 122°02'0 0.0
2016-Nov-09 05:32N 29°54' E 122°02'0 0.0
2016-Nov-09 04:32N 29°54' E 122°02'4 1.9
2016-Nov-09 02:33N 29°55' E 122°06'30 9.9
2016-Nov-08 23:33N 29°41' E 122°36'6 5.9
2016-Nov-08 22:33N 29°44' E 122°42'  
Track history (hours):
 
Tides and Currents Weather Stations Pressure Air Temp Water Temp Dewpoint Dewpoint Depression Visibility Wind Speed Wind Dir Waves Ship Positions

Maersk Essen

Last reported at 2016-Nov-15 19:19 UTC. Time now 2016-Dec-02 22:17 UTC.
Position N 22°34' E 114°16'.
Warning: this ship's position is 17 days out of date.

Length 367 m; draft 13.2 m.

Type: Ship (hazmat cat A). MMSI: 538004007.

Date/timePositionNaut miles runAvg speedWind from/ knotsBaromVisibWave heightAir tempDewpointWater temp
2016-Nov-15 19:19N 22°34' E 114°16'23 1.9
2016-Nov-15 07:26N 22°28' E 113°53'0 0.0
2016-Nov-15 06:32N 22°28' E 113°53'0 0.0
2016-Nov-15 05:50N 22°28' E 113°53'0 0.0
2016-Nov-15 03:26N 22°28' E 113°53'0 0.0
2016-Nov-15 00:32N 22°28' E 113°53'0 0.1
2016-Nov-14 23:32N 22°28' E 113°53'0 0.0
2016-Nov-14 19:08N 22°28' E 113°53'0 0.0
2016-Nov-14 17:32N 22°28' E 113°53'0 0.0
2016-Nov-14 16:26N 22°28' E 113°53'0 0.0
2016-Nov-14 15:14N 22°28' E 113°53'19413.2
2016-Nov-14 00:31N 22°56' E 117°21'3516.7
2016-Nov-13 22:24N 23°19' E 117°50'6516.8
2016-Nov-13 18:31N 23°55' E 118°49'1516.0
2016-Nov-13 17:33N 24°05' E 119°03'3215.8
2016-Nov-13 15:33N 24°29' E 119°25'3015.1
2016-Nov-13 13:34N 24°49' E 119°50'37217.5
2016-Nov-12 16:20N 30°23' E 122°53'12 0.3
2016-Nov-10 22:31N 30°28' E 122°40'43 6.0
2016-Nov-10 15:25N 29°46' E 122°44'32 8.4
2016-Nov-10 11:33N 29°55' E 122°08'6 5.5
2016-Nov-10 10:33N 29°54' E 122°02'0 0.0
2016-Nov-10 09:33N 29°54' E 122°02'0 0.0
2016-Nov-10 08:31N 29°54' E 122°02'0 0.0
2016-Nov-10 07:31N 29°54' E 122°02'0 0.0
2016-Nov-10 06:31N 29°54' E 122°02'0 0.0
2016-Nov-10 05:31N 29°54' E 122°02'0 0.0
2016-Nov-10 04:31N 29°54' E 122°02'0 0.0
2016-Nov-10 00:31N 29°54' E 122°02'0 0.0
2016-Nov-09 22:31N 29°54' E 122°02'0 0.0
2016-Nov-09 20:31N 29°54' E 122°02'0 0.0
2016-Nov-09 19:49N 29°54' E 122°02'0 0.0
2016-Nov-09 19:01N 29°54' E 122°02'0 0.0
2016-Nov-09 18:31N 29°54' E 122°02'0 0.0
2016-Nov-09 17:25N 29°54' E 122°02'0 0.0
2016-Nov-09 15:31N 29°54' E 122°02'0 0.0
2016-Nov-09 13:31N 29°54' E 122°02'0 0.0
2016-Nov-09 08:32N 29°54' E 122°02'0 0.0
2016-Nov-09 07:32N 29°54' E 122°02'0 0.0
2016-Nov-09 05:32N 29°54' E 122°02'0 0.0
2016-Nov-09 04:32N 29°54' E 122°02'4 1.9
2016-Nov-09 02:33N 29°55' E 122°06'30 9.9
2016-Nov-08 23:33N 29°41' E 122°36'6 5.9
2016-Nov-08 22:33N 29°44' E 122°42'  

Dump ship's entire track history